createdAt,value
2019-04-22T00:02:20.572Z,101245.27
2019-04-22T00:05:01.025Z,101243.35
2019-04-22T00:07:43.256Z,101234.55
2019-04-22T00:10:21.107Z,101236.25
2019-04-22T00:15:15.736Z,101226.83
2019-04-22T00:18:13.317Z,101218.43
2019-04-22T00:20:26.919Z,101221.09
2019-04-22T00:22:51.864Z,101217.59
2019-04-22T00:25:28.973Z,101219.09
2019-04-22T00:27:57.618Z,101211.21
2019-04-22T00:30:22.130Z,101206.66
2019-04-22T00:32:58.973Z,101203.66
2019-04-22T00:35:33.303Z,101196.70
2019-04-22T00:38:03.446Z,101195.19
2019-04-22T00:40:35.375Z,101197.55
2019-04-22T00:43:05.110Z,101193.64
2019-04-22T00:45:40.245Z,101191.66
2019-04-22T00:48:14.415Z,101186.14
2019-04-22T00:53:18.854Z,101189.98
2019-04-22T00:56:00.651Z,101179.91
2019-04-22T00:58:31.152Z,101181.05
2019-04-22T01:01:12.140Z,101179.13
2019-04-22T01:03:47.517Z,101171.16
2019-04-22T01:06:14.541Z,101169.63
2019-04-22T01:08:43.518Z,101165.91
2019-04-22T01:11:14.861Z,101166.88
2019-04-22T01:13:38.759Z,101167.38
2019-04-22T01:16:10.836Z,101161.36
2019-04-22T01:18:38.003Z,101157.83
2019-04-22T01:21:27.510Z,101154.88
2019-04-22T01:23:44.470Z,101153.77
2019-04-22T01:26:09.941Z,101151.23
2019-04-22T01:28:39.576Z,101145.87
2019-04-22T01:31:22.056Z,101145.48
2019-04-22T01:34:04.631Z,101137.06
2019-04-22T01:36:35.253Z,101134.31
2019-04-22T01:39:15.365Z,101134.92
2019-04-22T01:41:55.115Z,101132.88
2019-04-22T01:44:21.590Z,101132.59
2019-04-22T01:46:53.917Z,101130.15
2019-04-22T01:49:21.468Z,101135.48
2019-04-22T01:54:29.467Z,101128.81
2019-04-22T01:56:54.051Z,101125.97
2019-04-22T01:59:15.816Z,101120.08
2019-04-22T02:01:58.861Z,101113.53
2019-04-22T02:04:32.433Z,101112.13
2019-04-22T02:07:00.134Z,101106.77
2019-04-22T02:09:31.162Z,101106.83
2019-04-22T02:12:00.590Z,101108.08
2019-04-22T02:14:37.493Z,101102.88
2019-04-22T02:17:01.314Z,101100.45
2019-04-22T02:19:35.668Z,101088.44
2019-04-22T02:22:03.976Z,101089.59
2019-04-22T02:24:40.529Z,101092.10
2019-04-22T02:27:13.998Z,101083.00
2019-04-22T02:29:42.414Z,101082.80
2019-04-22T02:34:46.102Z,101074.89
2019-04-22T02:37:12.757Z,101073.28
2019-04-22T02:39:41.098Z,101069.98
2019-04-22T02:44:42.512Z,101062.23
2019-04-22T02:59:58.382Z,101045.86
2019-04-22T03:02:33.896Z,101047.66
2019-04-22T03:04:58.182Z,101042.45
2019-04-22T03:07:23.540Z,101038.50
2019-04-22T03:09:54.854Z,101042.78
2019-04-22T03:12:26.897Z,101036.69
2019-04-22T03:15:07.363Z,101026.78
2019-04-22T03:17:28.919Z,101028.98
2019-04-22T03:20:04.267Z,101027.23
2019-04-22T03:27:33.863Z,101014.83
2019-04-22T03:40:25.068Z,101001.59
2019-04-22T03:42:55.846Z,101003.49
2019-04-22T03:47:52.780Z,100994.38
2019-04-22T03:52:53.043Z,100987.77
2019-04-22T03:55:26.615Z,100985.47
2019-04-22T04:00:35.532Z,100974.93
2019-04-22T04:02:54.815Z,100974.93
2019-04-22T04:05:43.619Z,100974.70
2019-04-22T04:08:05.817Z,100979.73
2019-04-22T04:13:05.548Z,100966.64
2019-04-22T04:17:56.809Z,100966.93
2019-04-22T04:28:24.517Z,100961.29
2019-04-22T04:33:04.849Z,100951.03
2019-04-22T04:35:42.876Z,100951.03
2019-04-22T04:37:58.922Z,100946.75
2019-04-22T04:43:08.203Z,100937.30
2019-04-22T04:45:45.152Z,100937.30
2019-04-22T04:48:14.667Z,100944.03
2019-04-22T04:50:47.353Z,100942.22
2019-04-22T04:58:27.516Z,100943.86
2019-04-22T05:03:20.645Z,100946.25
2019-04-22T05:05:50.401Z,100943.59
2019-04-22T05:08:35.346Z,100937.44
2019-04-22T05:13:30.598Z,100942.89
2019-04-22T05:16:03.101Z,100941.77
2019-04-22T05:18:29.408Z,100936.58
2019-04-22T05:20:59.681Z,100936.84
2019-04-22T05:23:25.348Z,100931.86
2019-04-22T05:25:48.827Z,100939.34
2019-04-22T05:28:23.995Z,100933.95
2019-04-22T05:30:46.068Z,100929.30
2019-04-22T05:33:21.241Z,100934.82
2019-04-22T05:35:53.567Z,100934.95
2019-04-22T05:38:26.725Z,100934.45
2019-04-22T05:40:56.572Z,100926.64
2019-04-22T05:43:27.382Z,100934.73
2019-04-22T05:45:58.866Z,100932.79
2019-04-22T05:48:35.454Z,100932.05
2019-04-22T05:50:56.432Z,100930.41
2019-04-22T05:53:25.872Z,100931.08
2019-04-22T05:56:10.198Z,100932.42
2019-04-22T05:58:38.086Z,100929.14
2019-04-22T06:03:46.573Z,100927.63
2019-04-22T06:06:10.394Z,100925.27
2019-04-22T06:08:42.462Z,100921.40
2019-04-22T06:11:16.812Z,100923.48
2019-04-22T06:13:41.303Z,100919.27
2019-04-22T06:16:20.612Z,100919.05
2019-04-22T06:18:47.576Z,100912.53
2019-04-22T06:21:22.410Z,100919.08
2019-04-22T06:23:54.647Z,100913.09
2019-04-22T06:26:31.215Z,100918.88
2019-04-22T06:28:58.031Z,100915.08
2019-04-22T06:31:26.735Z,100912.02
2019-04-22T06:34:02.584Z,100914.95
2019-04-22T06:36:29.537Z,100912.35
2019-04-22T06:38:55.882Z,100914.75
2019-04-22T06:41:34.687Z,100914.75
2019-04-22T06:44:09.364Z,100900.64
2019-04-22T06:49:03.446Z,100908.07
2019-04-22T06:51:32.789Z,100910.33
2019-04-22T06:54:03.255Z,100900.45
2019-04-22T06:56:27.805Z,100906.30
2019-04-22T06:59:08.523Z,100906.30
2019-04-22T07:01:40.505Z,100902.12
2019-04-22T07:04:03.102Z,100899.89
2019-04-22T07:06:41.558Z,100898.98
2019-04-22T07:11:41.638Z,100890.87
2019-04-22T07:16:43.587Z,100893.07
2019-04-22T07:19:13.848Z,100884.41
2019-04-22T07:21:46.796Z,100886.69
2019-04-22T07:24:29.177Z,100890.52
2019-04-22T07:26:44.847Z,100887.17
2019-04-22T07:29:16.222Z,100885.13
2019-04-22T07:31:53.037Z,100880.83
2019-04-22T07:34:19.447Z,100881.46
2019-04-22T07:36:53.513Z,100881.35
2019-04-22T07:39:27.534Z,100878.30
2019-04-22T07:41:51.376Z,100874.61
2019-04-22T07:44:26.416Z,100873.15
2019-04-22T07:47:00.324Z,100875.52
2019-04-22T07:49:26.776Z,100868.08
2019-04-22T07:51:49.594Z,100859.98
2019-04-22T07:54:26.092Z,100864.64
2019-04-22T07:57:07.241Z,100866.72
2019-04-22T07:59:30.763Z,100862.02
2019-04-22T08:01:55.952Z,100860.49
2019-04-22T08:07:05.050Z,100851.84
2019-04-22T08:09:35.596Z,100846.68
2019-04-22T08:11:59.474Z,100849.00
2019-04-22T08:14:36.203Z,100846.30
2019-04-22T08:17:14.094Z,100850.37
2019-04-22T08:20:00.556Z,100845.58
2019-04-22T08:22:21.058Z,100840.89
2019-04-22T08:24:57.751Z,100849.77
2019-04-22T08:27:10.286Z,100843.34
2019-04-22T08:29:46.048Z,100845.08
2019-04-22T08:32:14.281Z,100843.56
2019-04-22T08:34:42.537Z,100843.53
2019-04-22T08:37:41.432Z,100841.93
2019-04-22T08:39:40.557Z,100832.31
2019-04-22T08:42:27.439Z,100833.03
2019-04-22T08:45:06.242Z,100829.44
2019-04-22T08:49:56.920Z,100826.58
2019-04-22T08:52:21.079Z,100829.25
2019-04-22T08:54:53.564Z,100819.16
2019-04-22T08:57:25.966Z,100816.41
2019-04-22T08:59:59.066Z,100814.05
2019-04-22T09:02:25.909Z,100810.80
2019-04-22T09:04:55.980Z,100807.20
2019-04-22T09:07:28.803Z,100810.92
2019-04-22T09:09:55.316Z,100809.69
2019-04-22T09:12:34.590Z,100800.83
2019-04-22T09:14:49.513Z,100799.94
2019-04-22T09:20:40.628Z,100795.71
2019-04-22T09:23:21.740Z,100783.33
2019-04-22T09:25:42.775Z,100777.98
2019-04-22T09:28:17.357Z,100776.92
2019-04-22T09:30:49.542Z,100776.75
2019-04-22T09:35:56.874Z,100774.58
2019-04-22T09:41:10.361Z,100767.34
2019-04-22T09:43:24.388Z,100764.00
2019-04-22T09:45:52.957Z,100765.63
2019-04-22T09:48:26.721Z,100762.11
2019-04-22T09:50:51.923Z,100760.59
2019-04-22T09:55:57.157Z,100754.68
2019-04-22T09:58:26.549Z,100749.32
2019-04-22T10:01:17.208Z,100750.48
2019-04-22T10:03:39.713Z,100742.34
2019-04-22T10:06:16.507Z,100740.65
2019-04-22T10:08:52.656Z,100732.90
2019-04-22T10:11:13.761Z,100731.78
2019-04-22T10:13:47.569Z,100736.77
2019-04-22T10:16:22.681Z,100736.91
2019-04-22T10:18:46.367Z,100728.28
2019-04-22T10:21:18.853Z,100723.86
2019-04-22T10:23:45.842Z,100719.33
2019-04-22T10:26:22.314Z,100720.41
2019-04-22T10:28:52.522Z,100712.34
2019-04-22T10:31:23.916Z,100715.92
2019-04-22T10:33:42.148Z,100714.80
2019-04-22T10:35:57.387Z,100710.34
2019-04-22T10:38:28.262Z,100703.74
2019-04-22T10:40:58.708Z,100692.15
2019-04-22T10:43:29.390Z,100688.88
2019-04-22T10:45:59.892Z,100684.56
2019-04-22T10:48:30.258Z,100688.05
2019-04-22T10:51:00.929Z,100678.52
2019-04-22T10:53:31.268Z,100677.86
2019-04-22T10:56:00.974Z,100674.43
2019-04-22T10:58:30.818Z,100674.59
2019-04-22T11:01:00.316Z,100672.53
2019-04-22T11:03:30.948Z,100668.08
2019-04-22T11:06:01.252Z,100674.80
2019-04-22T11:08:38.922Z,100668.98
2019-04-22T11:11:15.695Z,100661.47
2019-04-22T11:13:33.753Z,100665.09
2019-04-22T11:16:03.553Z,100654.78
2019-04-22T11:18:33.761Z,100660.94
2019-04-22T11:21:03.148Z,100660.00
2019-04-22T11:23:32.570Z,100645.12
2019-04-22T11:26:01.907Z,100657.95
2019-04-22T11:28:31.835Z,100651.16
2019-04-22T11:31:02.657Z,100648.27
2019-04-22T11:33:32.354Z,100644.30
2019-04-22T11:36:02.038Z,100647.13
2019-04-22T11:38:31.264Z,100632.86
2019-04-22T11:41:01.887Z,100632.52
2019-04-22T11:43:32.324Z,100625.12
2019-04-22T11:46:03.074Z,100629.88
2019-04-22T11:48:33.987Z,100629.34
2019-04-22T11:51:04.384Z,100622.16
2019-04-22T11:53:36.574Z,100621.27
2019-04-22T11:56:06.867Z,100619.84
2019-04-22T11:58:37.233Z,100608.42
2019-04-22T12:01:08.640Z,100607.97
2019-04-22T12:03:38.079Z,100606.80
2019-04-22T12:06:08.387Z,100601.12
2019-04-22T12:08:37.809Z,100599.30
2019-04-22T12:11:07.984Z,100601.67
2019-04-22T12:13:39.896Z,100599.92
2019-04-22T12:16:09.476Z,100592.96
2019-04-22T12:18:39.613Z,100601.69
2019-04-22T12:21:09.087Z,100578.84
2019-04-22T12:23:39.161Z,100585.98
2019-04-22T12:26:13.197Z,100574.37
2019-04-22T12:28:41.176Z,100567.92
2019-04-22T12:31:11.274Z,100564.73
2019-04-22T12:33:41.400Z,100564.33
2019-04-22T12:36:11.062Z,100565.02
2019-04-22T12:38:41.798Z,100570.20
2019-04-22T12:41:12.225Z,100563.96
2019-04-22T12:43:43.106Z,100558.38
2019-04-22T12:46:12.621Z,100551.70
2019-04-22T12:48:43.240Z,100549.19
2019-04-22T12:51:13.357Z,100545.30
2019-04-22T12:53:44.551Z,100535.02
2019-04-22T12:56:13.636Z,100538.79
2019-04-22T12:58:43.370Z,100537.62
2019-04-22T13:01:12.918Z,100534.36
2019-04-22T13:03:42.610Z,100537.59
2019-04-22T13:06:12.077Z,100531.08
2019-04-22T13:08:41.462Z,100524.12
2019-04-22T13:11:15.419Z,100532.83
2019-04-22T13:13:42.884Z,100521.05
2019-04-22T13:16:13.422Z,100515.91
2019-04-22T13:18:49.977Z,100516.62
2019-04-22T13:21:15.001Z,100514.55
2019-04-22T13:23:44.528Z,100512.50
2019-04-22T13:26:15.113Z,100497.98
2019-04-22T13:28:45.098Z,100502.25
2019-04-22T13:31:15.863Z,100494.77
2019-04-22T13:33:46.575Z,100486.91
2019-04-22T13:36:19.043Z,100493.91
2019-04-22T13:38:47.093Z,100480.92
2019-04-22T13:41:26.743Z,100475.27
2019-04-22T13:43:47.313Z,100486.55
2019-04-22T13:46:16.837Z,100484.69
2019-04-22T13:49:09.338Z,100469.14
2019-04-22T13:51:52.559Z,100467.23
2019-04-22T13:54:46.875Z,100457.87
2019-04-22T13:56:37.039Z,100460.94
2019-04-22T13:59:01.899Z,100459.91
2019-04-22T14:01:22.747Z,100444.34
2019-04-22T14:03:56.784Z,100446.88
2019-04-22T14:06:28.941Z,100431.88
2019-04-22T14:08:59.170Z,100450.83
2019-04-22T14:11:39.311Z,100441.08
2019-04-22T14:14:00.858Z,100428.59
2019-04-22T14:16:31.170Z,100428.94
2019-04-22T14:19:02.075Z,100415.45
2019-04-22T14:21:32.656Z,100422.11
2019-04-22T14:24:02.961Z,100420.41
2019-04-22T14:26:44.268Z,100428.59
2019-04-22T14:29:04.124Z,100420.23
2019-04-22T14:31:33.319Z,100411.19
2019-04-22T14:34:05.377Z,100392.40
2019-04-22T14:36:34.808Z,100409.63
2019-04-22T14:39:08.104Z,100401.77
2019-04-22T14:41:54.794Z,100397.49
2019-04-22T14:45:13.397Z,100406.58
2019-04-22T14:47:11.305Z,100409.47
2019-04-22T14:49:37.040Z,100393.22
2019-04-22T14:52:07.420Z,100382.64
2019-04-22T14:54:26.476Z,100380.58
2019-04-22T14:56:44.475Z,100373.41
2019-04-22T14:59:13.791Z,100375.25
2019-04-22T15:01:45.818Z,100355.23
2019-04-22T15:04:15.233Z,100350.09
2019-04-22T15:06:47.067Z,100358.67
2019-04-22T15:09:17.265Z,100353.50
2019-04-22T15:11:58.212Z,100352.45
2019-04-22T15:14:17.394Z,100348.64
2019-04-22T15:17:00.760Z,100343.89
2019-04-22T15:19:38.026Z,100358.10
2019-04-22T15:22:08.485Z,100339.52
2019-04-22T15:24:38.754Z,100345.47
2019-04-22T15:27:08.767Z,100331.93
2019-04-22T15:29:41.146Z,100342.57
2019-04-22T15:32:13.518Z,100333.00
2019-04-22T15:34:43.591Z,100327.36
2019-04-22T15:37:13.987Z,100329.22
2019-04-22T15:39:43.708Z,100330.77
2019-04-22T15:42:21.863Z,100321.69
2019-04-22T15:44:46.206Z,100329.27
2019-04-22T15:47:15.610Z,100327.23
2019-04-22T15:49:45.894Z,100316.58
2019-04-22T15:52:16.536Z,100313.88
2019-04-22T15:54:48.792Z,100311.98
2019-04-22T15:57:17.212Z,100313.15
2019-04-22T16:00:05.429Z,100314.14
2019-04-22T16:02:17.454Z,100309.05
2019-04-22T16:04:46.674Z,100316.68
2019-04-22T16:07:17.089Z,100308.83
2019-04-22T16:09:47.827Z,100303.55
2019-04-22T16:12:25.912Z,100299.45
2019-04-22T16:14:53.398Z,100291.24
2019-04-22T16:17:20.307Z,100290.22
2019-04-22T16:19:50.866Z,100295.66
2019-04-22T16:22:23.085Z,100283.55
2019-04-22T16:24:54.032Z,100285.41
2019-04-22T16:27:27.642Z,100287.45
2019-04-22T16:29:59.181Z,100283.76
2019-04-22T16:32:29.883Z,100277.23
2019-04-22T16:35:00.731Z,100273.14
2019-04-22T16:37:30.595Z,100278.29
2019-04-22T16:40:00.871Z,100270.08
2019-04-22T16:42:38.061Z,100267.52
2019-04-22T16:45:01.879Z,100271.13
2019-04-22T16:47:31.448Z,100263.59
2019-04-22T16:50:01.815Z,100274.55
2019-04-22T16:52:32.231Z,100268.97
2019-04-22T16:55:03.480Z,100264.34
2019-04-22T16:57:33.706Z,100259.22
2019-04-22T17:00:04.716Z,100253.75
2019-04-22T17:02:54.592Z,100255.98
2019-04-22T17:05:35.719Z,100257.55
2019-04-22T17:08:06.022Z,100255.02
2019-04-22T17:10:36.101Z,100253.82
2019-04-22T17:13:11.342Z,100259.28
2019-04-22T17:15:37.562Z,100251.44
2019-04-22T17:18:07.452Z,100260.69
2019-04-22T17:20:36.970Z,100254.53
2019-04-22T17:23:07.355Z,100247.70
2019-04-22T17:25:38.338Z,100250.80
2019-04-22T17:28:09.706Z,100256.95
2019-04-22T17:30:39.640Z,100257.66
2019-04-22T17:33:10.628Z,100258.67
2019-04-22T17:35:43.604Z,100254.26
2019-04-22T17:38:21.012Z,100263.84
2019-04-22T17:40:56.301Z,100249.33
2019-04-22T17:43:50.648Z,100256.69
2019-04-22T17:46:16.152Z,100256.02
2019-04-22T17:48:55.901Z,100247.80
2019-04-22T17:53:57.942Z,100244.92
2019-04-22T17:56:28.007Z,100250.37
2019-04-22T17:58:59.023Z,100253.47
2019-04-22T18:01:29.638Z,100246.80
2019-04-22T18:03:48.642Z,100244.42
2019-04-22T18:06:42.648Z,100247.13
2019-04-22T18:09:01.499Z,100246.78
2019-04-22T18:11:44.629Z,100246.78
2019-04-22T18:14:25.935Z,100256.00
2019-04-22T18:16:37.532Z,100256.69
2019-04-22T18:19:05.539Z,100259.06
2019-04-22T18:21:30.382Z,100265.53
2019-04-22T18:23:55.325Z,100253.78
2019-04-22T18:26:44.950Z,100257.36
2019-04-22T18:29:14.478Z,100256.00
2019-04-22T18:31:35.623Z,100250.19
2019-04-22T18:34:08.221Z,100260.75
2019-04-22T18:36:41.215Z,100253.25
2019-04-22T18:39:22.492Z,100264.16
2019-04-22T18:41:50.098Z,100264.81
2019-04-22T18:44:25.131Z,100262.60
2019-04-22T18:46:52.410Z,100257.63
2019-04-22T18:49:22.942Z,100266.49
2019-04-22T18:51:57.797Z,100257.92
2019-04-22T18:54:31.015Z,100271.88
2019-04-22T18:57:02.637Z,100265.37
2019-04-22T18:59:20.277Z,100263.67
2019-04-22T19:01:46.049Z,100257.53
2019-04-22T19:04:22.057Z,100266.03
2019-04-22T19:07:12.144Z,100273.16
2019-04-22T19:09:43.865Z,100279.61
2019-04-22T19:12:25.741Z,100270.75
2019-04-22T19:14:47.581Z,100278.92
2019-04-22T19:17:27.452Z,100281.64
2019-04-22T19:19:51.485Z,100280.11
2019-04-22T19:22:18.796Z,100285.35
2019-04-22T19:24:41.716Z,100274.13
2019-04-22T19:27:16.140Z,100281.77
2019-04-22T19:29:54.028Z,100283.27
2019-04-22T19:32:23.096Z,100277.47
2019-04-22T19:34:47.821Z,100279.81
2019-04-22T19:37:20.618Z,100278.11
2019-04-22T19:40:00.955Z,100285.52
2019-04-22T19:42:31.093Z,100286.68
2019-04-22T19:44:55.172Z,100286.48
2019-04-22T19:50:05.925Z,100284.73
2019-04-22T19:52:31.724Z,100283.71
2019-04-22T19:55:01.861Z,100279.76
2019-04-22T19:57:27.643Z,100271.75
2019-04-22T19:59:55.903Z,100274.75
2019-04-22T20:03:05.426Z,100281.05
2019-04-22T20:05:47.599Z,100274.67
2019-04-22T20:08:23.245Z,100266.33
2019-04-22T20:10:48.667Z,100265.62
2019-04-22T20:13:27.038Z,100263.38
2019-04-22T20:15:41.153Z,100266.83
2019-04-22T20:18:40.491Z,100255.67
2019-04-22T20:20:58.370Z,100256.65
2019-04-22T20:23:21.709Z,100256.11
2019-04-22T20:25:49.675Z,100257.05
2019-04-22T20:28:24.190Z,100260.83
2019-04-22T20:30:55.093Z,100256.35
2019-04-22T20:33:29.207Z,100254.33
2019-04-22T20:35:56.982Z,100249.52
2019-04-22T20:38:31.063Z,100251.76
2019-04-22T20:40:58.089Z,100248.77
2019-04-22T20:43:44.884Z,100260.77
2019-04-22T20:46:06.908Z,100251.18
2019-04-22T20:48:30.612Z,100251.23
2019-04-22T20:51:04.129Z,100253.25
2019-04-22T20:53:38.071Z,100249.17
2019-04-22T20:56:04.327Z,100247.12
2019-04-22T20:58:42.563Z,100241.21
2019-04-22T21:00:59.884Z,100237.42
2019-04-22T21:03:29.367Z,100245.91
2019-04-22T21:06:07.207Z,100240.63
2019-04-22T21:08:42.032Z,100240.84
2019-04-22T21:11:07.839Z,100240.44
2019-04-22T21:13:39.781Z,100240.51
2019-04-22T21:16:15.280Z,100242.12
2019-04-22T21:18:43.906Z,100248.22
2019-04-22T21:21:20.246Z,100239.55
2019-04-22T21:23:42.116Z,100239.39
2019-04-22T21:26:22.635Z,100234.87
2019-04-22T21:28:47.721Z,100237.29
2019-04-22T21:31:23.707Z,100226.88
2019-04-22T21:33:50.319Z,100230.11
2019-04-22T21:36:25.111Z,100222.81
2019-04-22T21:38:53.219Z,100228.61
2019-04-22T21:41:22.578Z,100223.70
2019-04-22T21:43:58.146Z,100222.12
2019-04-22T21:46:28.892Z,100223.11
2019-04-22T21:48:59.961Z,100216.05
2019-04-22T21:51:33.966Z,100217.64
2019-04-22T21:54:03.809Z,100220.67
2019-04-22T21:56:40.768Z,100225.12
2019-04-22T21:59:12.354Z,100216.78
2019-04-22T22:01:56.822Z,100223.53
2019-04-22T22:04:16.123Z,100221.39
2019-04-22T22:06:38.014Z,100220.52
2019-04-22T22:09:23.251Z,100230.02
2019-04-22T22:11:46.728Z,100225.23
2019-04-22T22:14:16.715Z,100222.31
2019-04-22T22:16:42.903Z,100208.27
2019-04-22T22:19:17.225Z,100211.47
2019-04-22T22:22:02.991Z,100209.41
2019-04-22T22:24:25.547Z,100214.97
2019-04-22T22:26:55.844Z,100202.47
2019-04-22T22:29:40.191Z,100198.98
2019-04-22T22:32:03.208Z,100201.75
2019-04-22T22:34:39.514Z,100195.76
2019-04-22T22:36:53.004Z,100194.06
2019-04-22T22:39:24.807Z,100196.14
2019-04-22T22:41:41.751Z,100199.05
2019-04-22T22:44:21.137Z,100194.49
2019-04-22T22:46:59.023Z,100200.93
2019-04-22T22:49:33.361Z,100198.41
2019-04-22T22:52:31.050Z,100187.66
2019-04-22T22:54:37.603Z,100189.13
2019-04-22T22:57:16.820Z,100187.56
2019-04-22T22:59:40.289Z,100191.76
2019-04-22T23:02:06.070Z,100192.23
2019-04-22T23:04:39.812Z,100187.83
2019-04-22T23:07:17.174Z,100192.98
2019-04-22T23:09:47.373Z,100199.17
2019-04-22T23:12:25.155Z,100192.09
2019-04-22T23:14:44.207Z,100187.83
2019-04-22T23:17:01.840Z,100185.92
2019-04-22T23:19:26.166Z,100197.66
2019-04-22T23:22:01.141Z,100191.16
2019-04-22T23:24:59.816Z,100185.48
2019-04-22T23:27:38.750Z,100191.69
2019-04-22T23:30:19.295Z,100183.59
2019-04-22T23:33:01.939Z,100177.00
2019-04-22T23:35:42.833Z,100178.19
2019-04-22T23:38:12.119Z,100175.41
2019-04-22T23:40:44.355Z,100173.06
2019-04-22T23:43:23.151Z,100172.53
2019-04-22T23:45:56.694Z,100164.27
2019-04-22T23:48:20.642Z,100165.63
2019-04-22T23:50:56.885Z,100164.60
2019-04-22T23:53:58.091Z,100161.75
2019-04-22T23:56:04.310Z,100156.63
